sensor_id;sensor_type;location;lat;lon;timestamp;temperature;humidity
19781;DHT22;10050;55.492;13.506;2022-11-30T00:00:53;4.90;99.90
19781;DHT22;10050;55.492;13.506;2022-11-30T00:03:19;4.90;99.90
19781;DHT22;10050;55.492;13.506;2022-11-30T00:05:45;4.90;99.90
19781;DHT22;10050;55.492;13.506;2022-11-30T00:08:11;4.90;99.90
19781;DHT22;10050;55.492;13.506;2022-11-30T00:10:39;4.90;99.90
19781;DHT22;10050;55.492;13.506;2022-11-30T00:13:05;4.90;99.90
19781;DHT22;10050;55.492;13.506;2022-11-30T00:15:31;4.90;99.90
19781;DHT22;10050;55.492;13.506;2022-11-30T00:17:58;4.90;99.90
19781;DHT22;10050;55.492;13.506;2022-11-30T00:20:23;4.90;99.90
19781;DHT22;10050;55.492;13.506;2022-11-30T00:22:49;4.90;99.90
19781;DHT22;10050;55.492;13.506;2022-11-30T00:25:15;4.90;99.90
19781;DHT22;10050;55.492;13.506;2022-11-30T00:27:41;4.90;99.90
19781;DHT22;10050;55.492;13.506;2022-11-30T00:30:07;4.90;99.90
19781;DHT22;10050;55.492;13.506;2022-11-30T00:32:33;4.90;99.90
19781;DHT22;10050;55.492;13.506;2022-11-30T00:34:58;4.90;99.90
19781;DHT22;10050;55.492;13.506;2022-11-30T00:37:24;4.80;99.90
19781;DHT22;10050;55.492;13.506;2022-11-30T00:39:50;4.90;99.90
19781;DHT22;10050;55.492;13.506;2022-11-30T00:42:15;4.90;99.90
19781;DHT22;10050;55.492;13.506;2022-11-30T00:44:41;4.90;99.90
19781;DHT22;10050;55.492;13.506;2022-11-30T00:47:07;4.90;99.90
19781;DHT22;10050;55.492;13.506;2022-11-30T00:49:32;4.90;99.90
19781;DHT22;10050;55.492;13.506;2022-11-30T00:51:59;4.90;99.90
19781;DHT22;10050;55.492;13.506;2022-11-30T00:54:25;4.90;99.90
19781;DHT22;10050;55.492;13.506;2022-11-30T00:56:50;4.90;99.90
19781;DHT22;10050;55.492;13.506;2022-11-30T00:59:16;4.90;99.90
19781;DHT22;10050;55.492;13.506;2022-11-30T01:01:41;4.90;99.90
19781;DHT22;10050;55.492;13.506;2022-11-30T01:04:07;4.90;99.90
19781;DHT22;10050;55.492;13.506;2022-11-30T01:06:33;4.90;99.90
19781;DHT22;10050;55.492;13.506;2022-11-30T01:08:59;4.90;99.90
19781;DHT22;10050;55.492;13.506;2022-11-30T01:11:26;4.90;99.90
19781;DHT22;10050;55.492;13.506;2022-11-30T01:13:54;4.90;99.90
19781;DHT22;10050;55.492;13.506;2022-11-30T01:16:23;4.90;99.90
19781;DHT22;10050;55.492;13.506;2022-11-30T01:18:50;5.00;99.90
19781;DHT22;10050;55.492;13.506;2022-11-30T01:21:21;5.00;99.90
19781;DHT22;10050;55.492;13.506;2022-11-30T01:23:47;4.90;99.90
19781;DHT22;10050;55.492;13.506;2022-11-30T01:26:13;4.90;99.90
19781;DHT22;10050;55.492;13.506;2022-11-30T01:28:39;5.00;99.90
19781;DHT22;10050;55.492;13.506;2022-11-30T01:31:08;5.00;99.90
19781;DHT22;10050;55.492;13.506;2022-11-30T01:33:34;5.00;99.90
19781;DHT22;10050;55.492;13.506;2022-11-30T01:36:06;5.00;99.90
19781;DHT22;10050;55.492;13.506;2022-11-30T01:38:40;5.00;99.90
19781;DHT22;10050;55.492;13.506;2022-11-30T01:41:08;5.00;99.90
19781;DHT22;10050;55.492;13.506;2022-11-30T01:43:52;5.00;99.90
19781;DHT22;10050;55.492;13.506;2022-11-30T01:46:41;5.00;99.90
19781;DHT22;10050;55.492;13.506;2022-11-30T01:54:08;5.00;99.90
19781;DHT22;10050;55.492;13.506;2022-11-30T01:56:35;5.00;99.90
19781;DHT22;10050;55.492;13.506;2022-11-30T01:59:01;5.00;99.90
19781;DHT22;10050;55.492;13.506;2022-11-30T02:01:27;4.90;99.90
19781;DHT22;10050;55.492;13.506;2022-11-30T02:04:03;5.00;99.90
19781;DHT22;10050;55.492;13.506;2022-11-30T02:06:30;5.00;99.90
19781;DHT22;10050;55.492;13.506;2022-11-30T02:08:56;5.00;99.90
19781;DHT22;10050;55.492;13.506;2022-11-30T02:11:23;5.00;99.90
19781;DHT22;10050;55.492;13.506;2022-11-30T02:20:17;5.00;99.90
19781;DHT22;10050;55.492;13.506;2022-11-30T02:25:39;4.90;99.90
19781;DHT22;10050;55.492;13.506;2022-11-30T02:30:54;4.90;99.90
19781;DHT22;10050;55.492;13.506;2022-11-30T02:33:25;4.90;99.90
19781;DHT22;10050;55.492;13.506;2022-11-30T02:35:54;4.90;99.90
19781;DHT22;10050;55.492;13.506;2022-11-30T02:38:23;4.90;99.90
19781;DHT22;10050;55.492;13.506;2022-11-30T02:40:49;4.90;99.90
19781;DHT22;10050;55.492;13.506;2022-11-30T02:43:16;4.90;99.90
19781;DHT22;10050;55.492;13.506;2022-11-30T02:45:57;4.90;99.90
19781;DHT22;10050;55.492;13.506;2022-11-30T02:51:26;4.90;99.90
19781;DHT22;10050;55.492;13.506;2022-11-30T02:53:53;4.90;99.90
19781;DHT22;10050;55.492;13.506;2022-11-30T02:56:19;4.90;99.90
19781;DHT22;10050;55.492;13.506;2022-11-30T02:58:46;4.90;99.90
19781;DHT22;10050;55.492;13.506;2022-11-30T03:01:12;5.00;99.90
19781;DHT22;10050;55.492;13.506;2022-11-30T03:03:38;5.00;99.90
19781;DHT22;10050;55.492;13.506;2022-11-30T03:06:04;5.00;99.90
19781;DHT22;10050;55.492;13.506;2022-11-30T03:08:30;5.00;99.90
19781;DHT22;10050;55.492;13.506;2022-11-30T03:10:55;4.90;99.90
19781;DHT22;10050;55.492;13.506;2022-11-30T03:13:21;4.90;99.90
19781;DHT22;10050;55.492;13.506;2022-11-30T03:15:46;4.90;99.90
19781;DHT22;10050;55.492;13.506;2022-11-30T03:18:12;4.90;99.90
19781;DHT22;10050;55.492;13.506;2022-11-30T03:20:41;4.90;99.90
19781;DHT22;10050;55.492;13.506;2022-11-30T03:23:07;4.90;99.90
19781;DHT22;10050;55.492;13.506;2022-11-30T03:25:33;4.90;99.90
19781;DHT22;10050;55.492;13.506;2022-11-30T03:28:03;4.90;99.90
19781;DHT22;10050;55.492;13.506;2022-11-30T03:30:29;4.90;99.90
19781;DHT22;10050;55.492;13.506;2022-11-30T03:32:54;4.90;99.90
19781;DHT22;10050;55.492;13.506;2022-11-30T03:35:20;4.90;99.90
19781;DHT22;10050;55.492;13.506;2022-11-30T03:37:46;4.90;99.90
19781;DHT22;10050;55.492;13.506;2022-11-30T03:40:12;4.90;99.90
19781;DHT22;10050;55.492;13.506;2022-11-30T03:42:38;4.90;99.90
19781;DHT22;10050;55.492;13.506;2022-11-30T03:45:04;4.90;99.90
19781;DHT22;10050;55.492;13.506;2022-11-30T03:47:29;4.80;99.90
19781;DHT22;10050;55.492;13.506;2022-11-30T03:49:55;4.80;99.90
19781;DHT22;10050;55.492;13.506;2022-11-30T03:52:21;4.80;99.90
19781;DHT22;10050;55.492;13.506;2022-11-30T03:54:46;4.80;99.90
19781;DHT22;10050;55.492;13.506;2022-11-30T03:57:12;4.80;99.90
19781;DHT22;10050;55.492;13.506;2022-11-30T03:59:37;4.80;99.90
19781;DHT22;10050;55.492;13.506;2022-11-30T04:02:03;4.80;99.90
19781;DHT22;10050;55.492;13.506;2022-11-30T04:04:29;4.80;99.90
19781;DHT22;10050;55.492;13.506;2022-11-30T04:06:54;4.80;99.90
19781;DHT22;10050;55.492;13.506;2022-11-30T04:09:20;4.80;99.90
19781;DHT22;10050;55.492;13.506;2022-11-30T04:11:45;4.70;99.90
19781;DHT22;10050;55.492;13.506;2022-11-30T04:14:11;4.70;99.90
19781;DHT22;10050;55.492;13.506;2022-11-30T04:16:36;4.80;99.90
19781;DHT22;10050;55.492;13.506;2022-11-30T04:19:02;4.70;99.90
19781;DHT22;10050;55.492;13.506;2022-11-30T04:21:28;4.70;99.90
19781;DHT22;10050;55.492;13.506;2022-11-30T04:23:54;4.70;99.90
19781;DHT22;10050;55.492;13.506;2022-11-30T04:26:20;4.70;99.90
19781;DHT22;10050;55.492;13.506;2022-11-30T04:28:45;4.70;99.90
19781;DHT22;10050;55.492;13.506;2022-11-30T04:31:11;4.70;99.90
19781;DHT22;10050;55.492;13.506;2022-11-30T04:33:37;4.60;99.90
19781;DHT22;10050;55.492;13.506;2022-11-30T04:36:04;4.60;99.90
19781;DHT22;10050;55.492;13.506;2022-11-30T04:38:31;4.60;99.90
19781;DHT22;10050;55.492;13.506;2022-11-30T04:40:57;4.60;99.90
19781;DHT22;10050;55.492;13.506;2022-11-30T04:43:23;4.60;99.90
19781;DHT22;10050;55.492;13.506;2022-11-30T04:45:49;4.60;99.90
19781;DHT22;10050;55.492;13.506;2022-11-30T04:48:16;4.60;99.90
19781;DHT22;10050;55.492;13.506;2022-11-30T04:50:42;4.60;99.90
19781;DHT22;10050;55.492;13.506;2022-11-30T04:53:08;4.60;99.90
19781;DHT22;10050;55.492;13.506;2022-11-30T04:55:36;4.70;99.90
19781;DHT22;10050;55.492;13.506;2022-11-30T04:58:03;4.70;99.90
19781;DHT22;10050;55.492;13.506;2022-11-30T05:00:29;4.70;99.90
19781;DHT22;10050;55.492;13.506;2022-11-30T05:02:55;4.70;99.90
19781;DHT22;10050;55.492;13.506;2022-11-30T05:05:21;4.70;99.90
19781;DHT22;10050;55.492;13.506;2022-11-30T05:07:53;4.60;99.90
19781;DHT22;10050;55.492;13.506;2022-11-30T05:10:19;4.70;99.90
19781;DHT22;10050;55.492;13.506;2022-11-30T05:12:44;4.70;99.90
19781;DHT22;10050;55.492;13.506;2022-11-30T05:15:10;4.70;99.90
19781;DHT22;10050;55.492;13.506;2022-11-30T05:17:36;4.70;99.90
19781;DHT22;10050;55.492;13.506;2022-11-30T05:20:02;4.70;99.90
19781;DHT22;10050;55.492;13.506;2022-11-30T05:22:27;4.60;99.90
19781;DHT22;10050;55.492;13.506;2022-11-30T05:24:53;4.60;99.90
19781;DHT22;10050;55.492;13.506;2022-11-30T05:27:18;4.60;99.90
19781;DHT22;10050;55.492;13.506;2022-11-30T05:29:44;4.60;99.90
19781;DHT22;10050;55.492;13.506;2022-11-30T05:32:10;4.50;99.90
19781;DHT22;10050;55.492;13.506;2022-11-30T05:34:35;4.50;99.90
19781;DHT22;10050;55.492;13.506;2022-11-30T05:37:01;4.60;99.90
19781;DHT22;10050;55.492;13.506;2022-11-30T05:39:26;4.50;99.90
19781;DHT22;10050;55.492;13.506;2022-11-30T05:41:55;4.60;99.90
19781;DHT22;10050;55.492;13.506;2022-11-30T05:44:20;4.50;99.90
19781;DHT22;10050;55.492;13.506;2022-11-30T05:46:46;4.50;99.90
19781;DHT22;10050;55.492;13.506;2022-11-30T05:49:12;4.50;99.90
19781;DHT22;10050;55.492;13.506;2022-11-30T05:51:39;4.50;99.90
19781;DHT22;10050;55.492;13.506;2022-11-30T05:54:05;4.60;99.90
19781;DHT22;10050;55.492;13.506;2022-11-30T05:56:30;4.60;99.90
19781;DHT22;10050;55.492;13.506;2022-11-30T05:58:56;4.50;99.90
19781;DHT22;10050;55.492;13.506;2022-11-30T06:01:26;4.50;99.90
19781;DHT22;10050;55.492;13.506;2022-11-30T06:03:52;4.50;99.90
19781;DHT22;10050;55.492;13.506;2022-11-30T06:06:18;4.50;99.90
19781;DHT22;10050;55.492;13.506;2022-11-30T06:08:46;4.50;99.90
19781;DHT22;10050;55.492;13.506;2022-11-30T06:11:11;4.50;99.90
19781;DHT22;10050;55.492;13.506;2022-11-30T06:13:38;4.40;99.90
19781;DHT22;10050;55.492;13.506;2022-11-30T06:16:06;4.40;99.90
19781;DHT22;10050;55.492;13.506;2022-11-30T06:18:32;4.40;99.90
19781;DHT22;10050;55.492;13.506;2022-11-30T06:21:04;4.40;99.90
19781;DHT22;10050;55.492;13.506;2022-11-30T06:23:30;4.40;99.90
19781;DHT22;10050;55.492;13.506;2022-11-30T06:25:56;4.30;99.90
19781;DHT22;10050;55.492;13.506;2022-11-30T06:28:21;4.30;99.90
19781;DHT22;10050;55.492;13.506;2022-11-30T06:30:47;4.20;99.90
19781;DHT22;10050;55.492;13.506;2022-11-30T06:33:13;4.20;99.90
19781;DHT22;10050;55.492;13.506;2022-11-30T06:35:45;4.20;99.90
19781;DHT22;10050;55.492;13.506;2022-11-30T06:38:11;4.20;99.90
19781;DHT22;10050;55.492;13.506;2022-11-30T06:40:37;4.20;99.90
19781;DHT22;10050;55.492;13.506;2022-11-30T06:43:03;4.20;99.90
19781;DHT22;10050;55.492;13.506;2022-11-30T06:45:28;4.10;99.90
19781;DHT22;10050;55.492;13.506;2022-11-30T06:47:56;4.10;99.90
19781;DHT22;10050;55.492;13.506;2022-11-30T06:50:22;4.10;99.90
19781;DHT22;10050;55.492;13.506;2022-11-30T06:52:50;4.10;99.90
19781;DHT22;10050;55.492;13.506;2022-11-30T06:55:16;4.10;99.90
19781;DHT22;10050;55.492;13.506;2022-11-30T06:57:41;4.10;99.90
19781;DHT22;10050;55.492;13.506;2022-11-30T07:00:08;4.10;99.90
19781;DHT22;10050;55.492;13.506;2022-11-30T07:02:34;4.20;99.90
19781;DHT22;10050;55.492;13.506;2022-11-30T07:05:00;4.20;99.90
19781;DHT22;10050;55.492;13.506;2022-11-30T07:07:28;4.20;99.90
19781;DHT22;10050;55.492;13.506;2022-11-30T07:09:54;4.40;99.90
19781;DHT22;10050;55.492;13.506;2022-11-30T07:12:20;4.40;99.90
19781;DHT22;10050;55.492;13.506;2022-11-30T07:14:45;4.30;99.90
19781;DHT22;10050;55.492;13.506;2022-11-30T07:17:11;4.30;99.90
19781;DHT22;10050;55.492;13.506;2022-11-30T07:19:36;4.20;99.90
19781;DHT22;10050;55.492;13.506;2022-11-30T07:22:02;4.30;99.90
19781;DHT22;10050;55.492;13.506;2022-11-30T07:24:28;4.20;99.90
19781;DHT22;10050;55.492;13.506;2022-11-30T07:27:12;4.30;99.90
19781;DHT22;10050;55.492;13.506;2022-11-30T07:29:38;4.20;99.90
19781;DHT22;10050;55.492;13.506;2022-11-30T07:32:04;4.20;99.90
19781;DHT22;10050;55.492;13.506;2022-11-30T07:34:29;4.20;99.90
19781;DHT22;10050;55.492;13.506;2022-11-30T07:36:55;4.20;99.90
19781;DHT22;10050;55.492;13.506;2022-11-30T07:39:20;4.20;99.90
19781;DHT22;10050;55.492;13.506;2022-11-30T07:41:46;4.30;99.90
19781;DHT22;10050;55.492;13.506;2022-11-30T07:44:12;4.30;99.90
19781;DHT22;10050;55.492;13.506;2022-11-30T07:46:38;4.30;99.90
19781;DHT22;10050;55.492;13.506;2022-11-30T07:49:05;4.30;99.90
19781;DHT22;10050;55.492;13.506;2022-11-30T07:51:32;4.20;99.90
19781;DHT22;10050;55.492;13.506;2022-11-30T07:53:58;4.30;99.90
19781;DHT22;10050;55.492;13.506;2022-11-30T07:56:24;4.40;99.90
19781;DHT22;10050;55.492;13.506;2022-11-30T07:58:55;4.40;99.90
19781;DHT22;10050;55.492;13.506;2022-11-30T08:01:23;4.40;99.90
19781;DHT22;10050;55.492;13.506;2022-11-30T08:03:50;4.40;99.90
19781;DHT22;10050;55.492;13.506;2022-11-30T08:06:21;4.40;99.90
19781;DHT22;10050;55.492;13.506;2022-11-30T08:08:48;4.40;99.90
19781;DHT22;10050;55.492;13.506;2022-11-30T08:11:17;4.40;99.90
19781;DHT22;10050;55.492;13.506;2022-11-30T08:13:43;4.40;99.90
19781;DHT22;10050;55.492;13.506;2022-11-30T08:16:14;4.50;99.90
19781;DHT22;10050;55.492;13.506;2022-11-30T08:18:40;4.50;99.90
19781;DHT22;10050;55.492;13.506;2022-11-30T08:21:08;4.50;99.90
19781;DHT22;10050;55.492;13.506;2022-11-30T08:23:37;4.50;99.90
19781;DHT22;10050;55.492;13.506;2022-11-30T08:26:09;4.50;99.90
19781;DHT22;10050;55.492;13.506;2022-11-30T08:28:35;4.50;99.90
19781;DHT22;10050;55.492;13.506;2022-11-30T08:31:02;4.50;99.90
19781;DHT22;10050;55.492;13.506;2022-11-30T08:33:29;4.50;99.90
19781;DHT22;10050;55.492;13.506;2022-11-30T08:36:11;4.60;99.90
19781;DHT22;10050;55.492;13.506;2022-11-30T08:38:37;4.60;99.90
19781;DHT22;10050;55.492;13.506;2022-11-30T08:41:04;4.60;99.90
19781;DHT22;10050;55.492;13.506;2022-11-30T08:43:30;4.60;99.90
19781;DHT22;10050;55.492;13.506;2022-11-30T08:45:56;4.60;99.90
19781;DHT22;10050;55.492;13.506;2022-11-30T08:48:22;4.60;99.90
19781;DHT22;10050;55.492;13.506;2022-11-30T08:50:48;4.60;99.90
19781;DHT22;10050;55.492;13.506;2022-11-30T08:53:14;4.60;99.90
19781;DHT22;10050;55.492;13.506;2022-11-30T08:55:39;4.70;99.90
19781;DHT22;10050;55.492;13.506;2022-11-30T08:58:05;4.60;99.90
19781;DHT22;10050;55.492;13.506;2022-11-30T09:00:30;4.70;99.90
19781;DHT22;10050;55.492;13.506;2022-11-30T09:02:56;4.70;99.90
19781;DHT22;10050;55.492;13.506;2022-11-30T09:05:22;4.70;99.90
19781;DHT22;10050;55.492;13.506;2022-11-30T09:07:47;4.70;99.90
19781;DHT22;10050;55.492;13.506;2022-11-30T09:10:13;4.70;99.90
19781;DHT22;10050;55.492;13.506;2022-11-30T09:12:40;4.70;99.90
19781;DHT22;10050;55.492;13.506;2022-11-30T09:15:07;4.70;99.90
19781;DHT22;10050;55.492;13.506;2022-11-30T09:17:33;4.70;99.90
19781;DHT22;10050;55.492;13.506;2022-11-30T09:19:59;4.70;99.90
19781;DHT22;10050;55.492;13.506;2022-11-30T09:22:26;4.70;99.90
19781;DHT22;10050;55.492;13.506;2022-11-30T09:24:53;4.70;99.90
19781;DHT22;10050;55.492;13.506;2022-11-30T09:27:19;4.80;99.90
19781;DHT22;10050;55.492;13.506;2022-11-30T09:29:44;4.80;99.90
19781;DHT22;10050;55.492;13.506;2022-11-30T09:32:10;4.80;99.90
19781;DHT22;10050;55.492;13.506;2022-11-30T09:34:36;4.80;99.90
19781;DHT22;10050;55.492;13.506;2022-11-30T09:37:01;4.80;99.90
19781;DHT22;10050;55.492;13.506;2022-11-30T09:39:27;4.80;99.90
19781;DHT22;10050;55.492;13.506;2022-11-30T09:45:01;4.80;99.90
19781;DHT22;10050;55.492;13.506;2022-11-30T09:47:49;4.80;99.90
19781;DHT22;10050;55.492;13.506;2022-11-30T09:50:23;4.80;99.90
19781;DHT22;10050;55.492;13.506;2022-11-30T09:52:59;4.80;99.90
19781;DHT22;10050;55.492;13.506;2022-11-30T09:55:29;4.70;99.90
19781;DHT22;10050;55.492;13.506;2022-11-30T09:58:02;4.70;99.90
19781;DHT22;10050;55.492;13.506;2022-11-30T10:00:29;4.80;99.90
19781;DHT22;10050;55.492;13.506;2022-11-30T10:02:56;4.80;99.90
19781;DHT22;10050;55.492;13.506;2022-11-30T10:25:21;4.80;99.90
19781;DHT22;10050;55.492;13.506;2022-11-30T10:28:40;4.80;99.90
19781;DHT22;10050;55.492;13.506;2022-11-30T10:30:37;4.70;99.90
19781;DHT22;10050;55.492;13.506;2022-11-30T10:33:16;4.80;99.90
19781;DHT22;10050;55.492;13.506;2022-11-30T10:35:49;4.80;99.90
19781;DHT22;10050;55.492;13.506;2022-11-30T10:40:50;4.80;99.90
19781;DHT22;10050;55.492;13.506;2022-11-30T10:43:28;4.80;99.90
19781;DHT22;10050;55.492;13.506;2022-11-30T10:45:54;4.80;99.90
19781;DHT22;10050;55.492;13.506;2022-11-30T10:48:36;4.90;99.90
19781;DHT22;10050;55.492;13.506;2022-11-30T10:51:06;4.90;99.90
19781;DHT22;10050;55.492;13.506;2022-11-30T10:53:32;4.90;99.90
19781;DHT22;10050;55.492;13.506;2022-11-30T10:55:59;4.90;99.90
19781;DHT22;10050;55.492;13.506;2022-11-30T10:58:55;4.80;99.90
19781;DHT22;10050;55.492;13.506;2022-11-30T11:01:30;4.90;99.90
19781;DHT22;10050;55.492;13.506;2022-11-30T11:04:08;4.80;99.90
19781;DHT22;10050;55.492;13.506;2022-11-30T11:06:35;4.90;99.90
19781;DHT22;10050;55.492;13.506;2022-11-30T11:11:53;4.90;99.90
19781;DHT22;10050;55.492;13.506;2022-11-30T11:14:21;4.90;99.90
19781;DHT22;10050;55.492;13.506;2022-11-30T11:16:57;4.90;99.90
19781;DHT22;10050;55.492;13.506;2022-11-30T11:19:33;4.90;99.90
19781;DHT22;10050;55.492;13.506;2022-11-30T11:22:02;4.90;99.90
19781;DHT22;10050;55.492;13.506;2022-11-30T11:24:28;4.90;99.90
19781;DHT22;10050;55.492;13.506;2022-11-30T11:26:55;4.90;99.90
19781;DHT22;10050;55.492;13.506;2022-11-30T11:29:27;4.90;99.90
19781;DHT22;10050;55.492;13.506;2022-11-30T11:32:20;4.90;99.90
19781;DHT22;10050;55.492;13.506;2022-11-30T11:34:47;5.00;99.90
19781;DHT22;10050;55.492;13.506;2022-11-30T11:37:23;5.00;99.90
19781;DHT22;10050;55.492;13.506;2022-11-30T11:39:57;5.00;99.90
19781;DHT22;10050;55.492;13.506;2022-11-30T11:42:26;5.00;99.90
19781;DHT22;10050;55.492;13.506;2022-11-30T11:44:54;5.00;99.90
19781;DHT22;10050;55.492;13.506;2022-11-30T11:47:26;5.00;99.90
19781;DHT22;10050;55.492;13.506;2022-11-30T11:53:19;5.00;99.90
19781;DHT22;10050;55.492;13.506;2022-11-30T11:56:09;5.00;99.90
19781;DHT22;10050;55.492;13.506;2022-11-30T11:58:56;5.00;99.90
19781;DHT22;10050;55.492;13.506;2022-11-30T12:04:38;5.00;99.90
19781;DHT22;10050;55.492;13.506;2022-11-30T12:09:52;5.00;99.90
19781;DHT22;10050;55.492;13.506;2022-11-30T12:12:19;5.00;99.90
19781;DHT22;10050;55.492;13.506;2022-11-30T12:14:45;5.00;99.90
19781;DHT22;10050;55.492;13.506;2022-11-30T12:22:39;5.00;99.90
19781;DHT22;10050;55.492;13.506;2022-11-30T12:25:26;5.00;99.90
19781;DHT22;10050;55.492;13.506;2022-11-30T12:36:31;5.00;99.90
19781;DHT22;10050;55.492;13.506;2022-11-30T12:42:06;5.00;99.90
19781;DHT22;10050;55.492;13.506;2022-11-30T12:47:34;5.00;99.90
19781;DHT22;10050;55.492;13.506;2022-11-30T12:50:40;5.00;99.90
19781;DHT22;10050;55.492;13.506;2022-11-30T12:59:17;5.00;99.90
19781;DHT22;10050;55.492;13.506;2022-11-30T13:02:00;5.00;99.90
19781;DHT22;10050;55.492;13.506;2022-11-30T13:04:45;5.00;99.90
19781;DHT22;10050;55.492;13.506;2022-11-30T13:12:30;5.00;99.90
19781;DHT22;10050;55.492;13.506;2022-11-30T13:15:17;5.00;99.90
19781;DHT22;10050;55.492;13.506;2022-11-30T13:17:44;5.10;99.90
19781;DHT22;10050;55.492;13.506;2022-11-30T13:25:50;5.00;99.90
19781;DHT22;10050;55.492;13.506;2022-11-30T13:31:23;5.00;99.90
19781;DHT22;10050;55.492;13.506;2022-11-30T13:39:21;5.00;99.90
19781;DHT22;10050;55.492;13.506;2022-11-30T13:41:50;5.00;99.90
19781;DHT22;10050;55.492;13.506;2022-11-30T13:46:51;5.00;99.90
19781;DHT22;10050;55.492;13.506;2022-11-30T13:49:22;5.00;99.90
19781;DHT22;10050;55.492;13.506;2022-11-30T13:51:48;5.00;99.90
19781;DHT22;10050;55.492;13.506;2022-11-30T13:56:58;5.00;99.90
19781;DHT22;10050;55.492;13.506;2022-11-30T14:01:51;5.00;99.90
19781;DHT22;10050;55.492;13.506;2022-11-30T14:04:21;5.00;99.90
19781;DHT22;10050;55.492;13.506;2022-11-30T14:06:51;5.00;99.90
19781;DHT22;10050;55.492;13.506;2022-11-30T14:14:57;5.00;99.90
19781;DHT22;10050;55.492;13.506;2022-11-30T14:17:26;5.00;99.90
19781;DHT22;10050;55.492;13.506;2022-11-30T14:19:58;5.00;99.90
19781;DHT22;10050;55.492;13.506;2022-11-30T14:22:26;5.00;99.90
19781;DHT22;10050;55.492;13.506;2022-11-30T14:24:53;5.00;99.90
19781;DHT22;10050;55.492;13.506;2022-11-30T14:27:23;5.10;99.90
19781;DHT22;10050;55.492;13.506;2022-11-30T14:29:51;5.10;99.90
19781;DHT22;10050;55.492;13.506;2022-11-30T14:32:26;5.10;99.90
19781;DHT22;10050;55.492;13.506;2022-11-30T14:35:01;5.00;99.90
19781;DHT22;10050;55.492;13.506;2022-11-30T14:37:32;5.00;99.90
19781;DHT22;10050;55.492;13.506;2022-11-30T14:40:04;5.00;99.90
19781;DHT22;10050;55.492;13.506;2022-11-30T14:42:33;5.00;99.90
19781;DHT22;10050;55.492;13.506;2022-11-30T14:44:59;5.00;99.90
19781;DHT22;10050;55.492;13.506;2022-11-30T14:47:26;5.00;99.90
19781;DHT22;10050;55.492;13.506;2022-11-30T14:49:53;5.00;99.90
19781;DHT22;10050;55.492;13.506;2022-11-30T14:52:47;5.00;99.90
19781;DHT22;10050;55.492;13.506;2022-11-30T15:00:52;4.90;99.90
19781;DHT22;10050;55.492;13.506;2022-11-30T15:03:26;4.90;99.90
19781;DHT22;10050;55.492;13.506;2022-11-30T15:05:59;5.00;99.90
19781;DHT22;10050;55.492;13.506;2022-11-30T15:08:52;4.90;99.90
19781;DHT22;10050;55.492;13.506;2022-11-30T15:11:19;4.90;99.90
19781;DHT22;10050;55.492;13.506;2022-11-30T15:13:50;4.90;99.90
19781;DHT22;10050;55.492;13.506;2022-11-30T15:18:49;4.90;99.90
19781;DHT22;10050;55.492;13.506;2022-11-30T15:21:24;4.90;99.90
19781;DHT22;10050;55.492;13.506;2022-11-30T15:23:51;4.90;99.90
19781;DHT22;10050;55.492;13.506;2022-11-30T15:28:56;4.90;99.90
19781;DHT22;10050;55.492;13.506;2022-11-30T15:31:27;4.90;99.90
19781;DHT22;10050;55.492;13.506;2022-11-30T15:33:54;4.90;99.90
19781;DHT22;10050;55.492;13.506;2022-11-30T15:36:20;4.90;99.90
19781;DHT22;10050;55.492;13.506;2022-11-30T15:38:49;5.00;99.90
19781;DHT22;10050;55.492;13.506;2022-11-30T15:41:23;5.00;99.90
19781;DHT22;10050;55.492;13.506;2022-11-30T15:43:56;4.90;99.90
19781;DHT22;10050;55.492;13.506;2022-11-30T15:51:44;4.80;99.90
19781;DHT22;10050;55.492;13.506;2022-11-30T15:54:10;4.80;99.90
19781;DHT22;10050;55.492;13.506;2022-11-30T15:56:36;4.80;99.90
19781;DHT22;10050;55.492;13.506;2022-11-30T15:59:24;4.80;99.90
19781;DHT22;10050;55.492;13.506;2022-11-30T16:01:53;4.80;99.90
19781;DHT22;10050;55.492;13.506;2022-11-30T16:04:28;4.80;99.90
19781;DHT22;10050;55.492;13.506;2022-11-30T16:06:54;4.80;99.90
19781;DHT22;10050;55.492;13.506;2022-11-30T16:09:24;4.80;99.90
19781;DHT22;10050;55.492;13.506;2022-11-30T16:11:55;4.80;99.90
19781;DHT22;10050;55.492;13.506;2022-11-30T16:14:22;4.80;99.90
19781;DHT22;10050;55.492;13.506;2022-11-30T16:16:48;4.90;99.90
19781;DHT22;10050;55.492;13.506;2022-11-30T16:19:14;5.00;99.90
19781;DHT22;10050;55.492;13.506;2022-11-30T16:21:40;5.00;99.90
19781;DHT22;10050;55.492;13.506;2022-11-30T16:24:12;5.00;99.90
19781;DHT22;10050;55.492;13.506;2022-11-30T16:26:38;5.00;99.90
19781;DHT22;10050;55.492;13.506;2022-11-30T16:29:04;5.00;99.90
19781;DHT22;10050;55.492;13.506;2022-11-30T16:31:30;5.00;99.90
19781;DHT22;10050;55.492;13.506;2022-11-30T16:33:55;5.00;99.90
19781;DHT22;10050;55.492;13.506;2022-11-30T16:36:21;5.00;99.90
19781;DHT22;10050;55.492;13.506;2022-11-30T16:38:48;5.00;99.90
19781;DHT22;10050;55.492;13.506;2022-11-30T16:41:25;5.00;99.90
19781;DHT22;10050;55.492;13.506;2022-11-30T16:43:53;4.90;99.90
19781;DHT22;10050;55.492;13.506;2022-11-30T16:46:24;4.90;99.90
19781;DHT22;10050;55.492;13.506;2022-11-30T16:48:50;4.90;99.90
19781;DHT22;10050;55.492;13.506;2022-11-30T16:51:24;4.90;99.90
19781;DHT22;10050;55.492;13.506;2022-11-30T16:53:50;4.90;99.90
19781;DHT22;10050;55.492;13.506;2022-11-30T16:56:16;4.90;99.90
19781;DHT22;10050;55.492;13.506;2022-11-30T16:58:42;4.90;99.90
19781;DHT22;10050;55.492;13.506;2022-11-30T17:01:35;4.90;99.90
19781;DHT22;10050;55.492;13.506;2022-11-30T17:04:09;4.80;99.90
19781;DHT22;10050;55.492;13.506;2022-11-30T17:06:36;4.80;99.90
19781;DHT22;10050;55.492;13.506;2022-11-30T17:09:02;4.80;99.90
19781;DHT22;10050;55.492;13.506;2022-11-30T17:11:32;4.70;99.90
19781;DHT22;10050;55.492;13.506;2022-11-30T17:13:58;4.70;99.90
19781;DHT22;10050;55.492;13.506;2022-11-30T17:16:23;4.70;99.90
19781;DHT22;10050;55.492;13.506;2022-11-30T17:18:49;4.70;99.90
19781;DHT22;10050;55.492;13.506;2022-11-30T17:21:18;4.70;99.90
19781;DHT22;10050;55.492;13.506;2022-11-30T17:23:44;4.80;99.90
19781;DHT22;10050;55.492;13.506;2022-11-30T17:26:11;4.90;99.90
19781;DHT22;10050;55.492;13.506;2022-11-30T17:28:38;4.80;99.90
19781;DHT22;10050;55.492;13.506;2022-11-30T17:31:03;4.80;99.90
19781;DHT22;10050;55.492;13.506;2022-11-30T17:33:35;4.80;99.90
19781;DHT22;10050;55.492;13.506;2022-11-30T17:36:04;4.80;99.90
19781;DHT22;10050;55.492;13.506;2022-11-30T17:38:31;4.70;99.90
19781;DHT22;10050;55.492;13.506;2022-11-30T17:40:57;4.70;99.90
19781;DHT22;10050;55.492;13.506;2022-11-30T17:43:22;4.70;99.90
19781;DHT22;10050;55.492;13.506;2022-11-30T17:45:48;4.70;99.90
19781;DHT22;10050;55.492;13.506;2022-11-30T17:48:14;4.70;99.90
19781;DHT22;10050;55.492;13.506;2022-11-30T17:50:41;4.70;99.90